sensor_id;sensor_type;location;lat;lon;timestamp;temperature;humidity
28548;DHT22;15750;49.600;8.746;2022-09-12T00:00:12;23.50;52.80
28548;DHT22;15750;49.600;8.746;2022-09-12T00:03:01;23.60;52.80
28548;DHT22;15750;49.600;8.746;2022-09-12T00:05:48;23.60;52.80
28548;DHT22;15750;49.600;8.746;2022-09-12T00:08:35;23.50;52.70
28548;DHT22;15750;49.600;8.746;2022-09-12T00:11:23;23.50;52.70
28548;DHT22;15750;49.600;8.746;2022-09-12T00:14:12;23.50;52.60
28548;DHT22;15750;49.600;8.746;2022-09-12T00:17:02;23.50;52.50
28548;DHT22;15750;49.600;8.746;2022-09-12T00:19:49;23.50;52.50
28548;DHT22;15750;49.600;8.746;2022-09-12T00:22:36;23.50;52.60
28548;DHT22;15750;49.600;8.746;2022-09-12T00:25:24;23.50;52.70
28548;DHT22;15750;49.600;8.746;2022-09-12T00:28:12;23.50;52.60
28548;DHT22;15750;49.600;8.746;2022-09-12T00:31:03;23.50;52.60
28548;DHT22;15750;49.600;8.746;2022-09-12T00:33:55;23.50;52.60
28548;DHT22;15750;49.600;8.746;2022-09-12T00:36:45;23.40;52.50
28548;DHT22;15750;49.600;8.746;2022-09-12T00:39:32;23.40;52.60
28548;DHT22;15750;49.600;8.746;2022-09-12T00:42:19;23.40;52.50
28548;DHT22;15750;49.600;8.746;2022-09-12T00:45:19;23.40;52.50
28548;DHT22;15750;49.600;8.746;2022-09-12T00:48:18;23.40;52.10
28548;DHT22;15750;49.600;8.746;2022-09-12T00:51:10;23.40;52.30
28548;DHT22;15750;49.600;8.746;2022-09-12T00:53:59;23.40;52.40
28548;DHT22;15750;49.600;8.746;2022-09-12T00:56:53;23.40;52.50
28548;DHT22;15750;49.600;8.746;2022-09-12T00:59:45;23.30;52.40
28548;DHT22;15750;49.600;8.746;2022-09-12T01:02:34;23.40;52.20
28548;DHT22;15750;49.600;8.746;2022-09-12T01:05:22;23.40;52.50
28548;DHT22;15750;49.600;8.746;2022-09-12T01:08:12;23.30;52.40
28548;DHT22;15750;49.600;8.746;2022-09-12T01:10:59;23.30;52.40
28548;DHT22;15750;49.600;8.746;2022-09-12T01:13:47;23.30;52.40
28548;DHT22;15750;49.600;8.746;2022-09-12T01:16:36;23.30;52.40
28548;DHT22;15750;49.600;8.746;2022-09-12T01:27:15;23.30;52.20
28548;DHT22;15750;49.600;8.746;2022-09-12T01:33:43;23.30;52.10
28548;DHT22;15750;49.600;8.746;2022-09-12T01:36:50;23.30;52.10
28548;DHT22;15750;49.600;8.746;2022-09-12T01:39:49;23.30;52.00
28548;DHT22;15750;49.600;8.746;2022-09-12T01:42:44;23.20;52.10
28548;DHT22;15750;49.600;8.746;2022-09-12T01:45:42;23.20;52.20
28548;DHT22;15750;49.600;8.746;2022-09-12T01:48:37;23.20;52.10
28548;DHT22;15750;49.600;8.746;2022-09-12T01:51:31;23.20;52.30
28548;DHT22;15750;49.600;8.746;2022-09-12T01:54:26;23.20;52.30
28548;DHT22;15750;49.600;8.746;2022-09-12T01:57:21;23.20;52.00
28548;DHT22;15750;49.600;8.746;2022-09-12T02:00:11;23.20;52.10
28548;DHT22;15750;49.600;8.746;2022-09-12T02:03:03;23.20;52.30
28548;DHT22;15750;49.600;8.746;2022-09-12T02:05:57;23.20;52.30
28548;DHT22;15750;49.600;8.746;2022-09-12T02:08:50;23.20;52.40
28548;DHT22;15750;49.600;8.746;2022-09-12T02:11:42;23.20;52.50
28548;DHT22;15750;49.600;8.746;2022-09-12T02:14:33;23.20;52.10
28548;DHT22;15750;49.600;8.746;2022-09-12T02:17:24;23.20;52.20
28548;DHT22;15750;49.600;8.746;2022-09-12T02:20:18;23.20;52.10
28548;DHT22;15750;49.600;8.746;2022-09-12T02:23:28;23.20;52.00
28548;DHT22;15750;49.600;8.746;2022-09-12T02:26:20;23.20;52.10
28548;DHT22;15750;49.600;8.746;2022-09-12T02:29:09;23.20;52.10
28548;DHT22;15750;49.600;8.746;2022-09-12T02:31:58;23.20;52.10
28548;DHT22;15750;49.600;8.746;2022-09-12T02:34:52;23.20;52.00
28548;DHT22;15750;49.600;8.746;2022-09-12T02:37:52;23.20;52.00
28548;DHT22;15750;49.600;8.746;2022-09-12T02:40:43;23.20;52.50
28548;DHT22;15750;49.600;8.746;2022-09-12T02:43:30;23.10;51.80
28548;DHT22;15750;49.600;8.746;2022-09-12T02:46:20;23.10;51.90
28548;DHT22;15750;49.600;8.746;2022-09-12T02:49:09;23.10;51.90
28548;DHT22;15750;49.600;8.746;2022-09-12T02:51:56;23.10;51.90
28548;DHT22;15750;49.600;8.746;2022-09-12T02:54:47;23.10;52.00
28548;DHT22;15750;49.600;8.746;2022-09-12T02:57:34;23.10;52.00
28548;DHT22;15750;49.600;8.746;2022-09-12T03:00:21;23.10;52.00
28548;DHT22;15750;49.600;8.746;2022-09-12T03:03:22;23.10;51.90
28548;DHT22;15750;49.600;8.746;2022-09-12T03:06:18;23.10;51.90
28548;DHT22;15750;49.600;8.746;2022-09-12T03:09:13;23.10;51.80
28548;DHT22;15750;49.600;8.746;2022-09-12T03:12:09;23.10;51.80
28548;DHT22;15750;49.600;8.746;2022-09-12T03:15:14;23.00;51.40
28548;DHT22;15750;49.600;8.746;2022-09-12T03:18:18;23.00;51.50
28548;DHT22;15750;49.600;8.746;2022-09-12T03:21:14;23.00;51.40
28548;DHT22;15750;49.600;8.746;2022-09-12T03:24:11;23.00;51.50
28548;DHT22;15750;49.600;8.746;2022-09-12T03:27:05;23.10;51.30
28548;DHT22;15750;49.600;8.746;2022-09-12T03:29:56;23.00;51.00
28548;DHT22;15750;49.600;8.746;2022-09-12T03:32:46;23.00;51.30
28548;DHT22;15750;49.600;8.746;2022-09-12T03:35:34;22.90;51.20
28548;DHT22;15750;49.600;8.746;2022-09-12T03:38:21;22.90;51.30
28548;DHT22;15750;49.600;8.746;2022-09-12T03:41:09;22.90;51.40
28548;DHT22;15750;49.600;8.746;2022-09-12T03:43:57;22.90;51.50
28548;DHT22;15750;49.600;8.746;2022-09-12T03:46:45;22.90;51.30
28548;DHT22;15750;49.600;8.746;2022-09-12T03:49:32;22.90;51.30
28548;DHT22;15750;49.600;8.746;2022-09-12T03:52:19;22.90;51.30
28548;DHT22;15750;49.600;8.746;2022-09-12T03:55:07;22.90;51.40
28548;DHT22;15750;49.600;8.746;2022-09-12T03:57:55;22.80;51.40
28548;DHT22;15750;49.600;8.746;2022-09-12T04:00:44;22.90;51.50
28548;DHT22;15750;49.600;8.746;2022-09-12T04:03:31;22.80;51.50
28548;DHT22;15750;49.600;8.746;2022-09-12T04:06:20;22.90;51.60
28548;DHT22;15750;49.600;8.746;2022-09-12T04:09:08;22.80;51.50
28548;DHT22;15750;49.600;8.746;2022-09-12T04:11:55;22.80;51.30
28548;DHT22;15750;49.600;8.746;2022-09-12T04:14:42;22.80;51.40
28548;DHT22;15750;49.600;8.746;2022-09-12T04:17:31;22.80;51.40
28548;DHT22;15750;49.600;8.746;2022-09-12T04:20:19;22.80;51.20
28548;DHT22;15750;49.600;8.746;2022-09-12T04:23:06;22.80;51.10
28548;DHT22;15750;49.600;8.746;2022-09-12T04:25:53;22.80;51.10
28548;DHT22;15750;49.600;8.746;2022-09-12T04:28:41;22.80;51.00
28548;DHT22;15750;49.600;8.746;2022-09-12T04:31:28;22.80;50.90
28548;DHT22;15750;49.600;8.746;2022-09-12T04:34:17;22.70;50.60
28548;DHT22;15750;49.600;8.746;2022-09-12T04:37:04;22.70;50.70
28548;DHT22;15750;49.600;8.746;2022-09-12T04:39:52;22.70;50.80
28548;DHT22;15750;49.600;8.746;2022-09-12T04:42:42;22.70;50.90
28548;DHT22;15750;49.600;8.746;2022-09-12T04:45:30;22.70;50.90
28548;DHT22;15750;49.600;8.746;2022-09-12T04:48:17;22.70;51.00
28548;DHT22;15750;49.600;8.746;2022-09-12T04:51:10;22.60;50.90
28548;DHT22;15750;49.600;8.746;2022-09-12T04:54:00;22.60;50.30
28548;DHT22;15750;49.600;8.746;2022-09-12T04:56:49;22.60;50.70
28548;DHT22;15750;49.600;8.746;2022-09-12T04:59:37;22.60;50.80
28548;DHT22;15750;49.600;8.746;2022-09-12T05:02:25;22.60;50.90
28548;DHT22;15750;49.600;8.746;2022-09-12T05:05:13;22.60;50.80
28548;DHT22;15750;49.600;8.746;2022-09-12T05:08:03;22.60;50.90
28548;DHT22;15750;49.600;8.746;2022-09-12T05:10:51;22.50;50.70
28548;DHT22;15750;49.600;8.746;2022-09-12T05:13:38;22.50;50.80
28548;DHT22;15750;49.600;8.746;2022-09-12T05:16:26;22.50;50.90
28548;DHT22;15750;49.600;8.746;2022-09-12T05:19:14;22.50;51.00
28548;DHT22;15750;49.600;8.746;2022-09-12T05:22:01;22.50;50.80
28548;DHT22;15750;49.600;8.746;2022-09-12T05:24:51;22.50;50.90
28548;DHT22;15750;49.600;8.746;2022-09-12T05:27:38;22.50;50.90
28548;DHT22;15750;49.600;8.746;2022-09-12T05:30:25;22.50;51.00
28548;DHT22;15750;49.600;8.746;2022-09-12T05:33:13;22.50;50.80
28548;DHT22;15750;49.600;8.746;2022-09-12T05:36:01;22.50;50.90
28548;DHT22;15750;49.600;8.746;2022-09-12T05:38:49;22.40;51.00
28548;DHT22;15750;49.600;8.746;2022-09-12T05:41:37;22.50;51.10
28548;DHT22;15750;49.600;8.746;2022-09-12T05:44:25;22.50;51.20
28548;DHT22;15750;49.600;8.746;2022-09-12T05:47:12;22.40;51.00
28548;DHT22;15750;49.600;8.746;2022-09-12T05:50:01;22.50;51.30
28548;DHT22;15750;49.600;8.746;2022-09-12T05:52:56;22.50;51.30
28548;DHT22;15750;49.600;8.746;2022-09-12T05:55:43;22.50;51.30
28548;DHT22;15750;49.600;8.746;2022-09-12T05:58:32;22.50;51.40
28548;DHT22;15750;49.600;8.746;2022-09-12T06:01:19;22.50;51.40
28548;DHT22;15750;49.600;8.746;2022-09-12T06:04:07;22.50;51.50
28548;DHT22;15750;49.600;8.746;2022-09-12T06:06:54;22.50;51.50
28548;DHT22;15750;49.600;8.746;2022-09-12T06:09:41;22.50;51.50
28548;DHT22;15750;49.600;8.746;2022-09-12T06:12:28;22.60;51.60
28548;DHT22;15750;49.600;8.746;2022-09-12T06:15:17;22.50;51.60
28548;DHT22;15750;49.600;8.746;2022-09-12T06:18:04;22.60;51.60
28548;DHT22;15750;49.600;8.746;2022-09-12T06:20:52;22.60;51.70
28548;DHT22;15750;49.600;8.746;2022-09-12T06:23:39;22.60;51.70
28548;DHT22;15750;49.600;8.746;2022-09-12T06:26:27;22.60;51.70
28548;DHT22;15750;49.600;8.746;2022-09-12T06:29:15;22.60;51.80
28548;DHT22;15750;49.600;8.746;2022-09-12T06:32:05;22.60;51.80
28548;DHT22;15750;49.600;8.746;2022-09-12T06:34:52;22.60;51.80
28548;DHT22;15750;49.600;8.746;2022-09-12T06:37:40;22.60;51.80
28548;DHT22;15750;49.600;8.746;2022-09-12T06:40:30;22.70;52.00
28548;DHT22;15750;49.600;8.746;2022-09-12T06:43:17;22.70;52.00
28548;DHT22;15750;49.600;8.746;2022-09-12T06:46:05;22.70;52.10
28548;DHT22;15750;49.600;8.746;2022-09-12T06:48:55;22.70;52.20
28548;DHT22;15750;49.600;8.746;2022-09-12T06:51:43;22.70;52.30
28548;DHT22;15750;49.600;8.746;2022-09-12T06:54:30;22.70;52.30
28548;DHT22;15750;49.600;8.746;2022-09-12T06:57:17;22.70;52.40
28548;DHT22;15750;49.600;8.746;2022-09-12T07:00:06;22.80;52.50
28548;DHT22;15750;49.600;8.746;2022-09-12T07:02:54;22.80;52.60
28548;DHT22;15750;49.600;8.746;2022-09-12T07:05:43;22.80;52.60
28548;DHT22;15750;49.600;8.746;2022-09-12T07:08:31;22.80;52.70
28548;DHT22;15750;49.600;8.746;2022-09-12T07:11:21;22.80;52.70
28548;DHT22;15750;49.600;8.746;2022-09-12T07:14:11;22.90;52.90
28548;DHT22;15750;49.600;8.746;2022-09-12T07:16:59;22.90;53.00
28548;DHT22;15750;49.600;8.746;2022-09-12T07:19:46;22.90;53.20
28548;DHT22;15750;49.600;8.746;2022-09-12T07:22:35;22.90;53.40
28548;DHT22;15750;49.600;8.746;2022-09-12T07:25:22;23.00;53.50
28548;DHT22;15750;49.600;8.746;2022-09-12T07:28:09;23.00;53.50
28548;DHT22;15750;49.600;8.746;2022-09-12T07:30:56;23.00;53.60
28548;DHT22;15750;49.600;8.746;2022-09-12T07:33:44;23.10;54.30
28548;DHT22;15750;49.600;8.746;2022-09-12T07:36:38;23.10;53.90
28548;DHT22;15750;49.600;8.746;2022-09-12T07:39:27;23.20;54.10
28548;DHT22;15750;49.600;8.746;2022-09-12T07:42:14;23.30;54.50
28548;DHT22;15750;49.600;8.746;2022-09-12T07:45:02;23.30;54.30
28548;DHT22;15750;49.600;8.746;2022-09-12T07:47:52;23.40;54.50
28548;DHT22;15750;49.600;8.746;2022-09-12T07:50:40;23.40;54.70
28548;DHT22;15750;49.600;8.746;2022-09-12T07:53:31;23.50;54.70
28548;DHT22;15750;49.600;8.746;2022-09-12T07:56:22;23.50;54.80
28548;DHT22;15750;49.600;8.746;2022-09-12T07:59:16;23.60;54.90
28548;DHT22;15750;49.600;8.746;2022-09-12T08:02:23;23.70;54.70
28548;DHT22;15750;49.600;8.746;2022-09-12T08:05:10;23.80;54.60
28548;DHT22;15750;49.600;8.746;2022-09-12T08:07:58;23.80;54.60
28548;DHT22;15750;49.600;8.746;2022-09-12T08:10:45;23.90;54.40
28548;DHT22;15750;49.600;8.746;2022-09-12T08:13:35;24.00;54.30
28548;DHT22;15750;49.600;8.746;2022-09-12T08:16:26;24.00;54.30
28548;DHT22;15750;49.600;8.746;2022-09-12T08:19:15;24.10;54.20
28548;DHT22;15750;49.600;8.746;2022-09-12T08:22:02;24.10;54.10
28548;DHT22;15750;49.600;8.746;2022-09-12T08:24:50;24.20;54.00
28548;DHT22;15750;49.600;8.746;2022-09-12T08:27:37;24.20;53.80
28548;DHT22;15750;49.600;8.746;2022-09-12T08:30:25;24.30;53.80
28548;DHT22;15750;49.600;8.746;2022-09-12T08:33:13;24.30;53.70
28548;DHT22;15750;49.600;8.746;2022-09-12T08:36:05;24.30;53.60
28548;DHT22;15750;49.600;8.746;2022-09-12T08:38:55;24.30;53.70
28548;DHT22;15750;49.600;8.746;2022-09-12T08:41:46;24.40;53.70
28548;DHT22;15750;49.600;8.746;2022-09-12T08:44:47;24.40;53.70
28548;DHT22;15750;49.600;8.746;2022-09-12T08:47:44;24.40;53.60
28548;DHT22;15750;49.600;8.746;2022-09-12T08:50:33;24.40;53.60
28548;DHT22;15750;49.600;8.746;2022-09-12T08:53:22;24.50;53.50
28548;DHT22;15750;49.600;8.746;2022-09-12T08:56:11;24.50;53.50
28548;DHT22;15750;49.600;8.746;2022-09-12T08:58:59;24.50;53.40
28548;DHT22;15750;49.600;8.746;2022-09-12T09:01:46;24.60;53.30
28548;DHT22;15750;49.600;8.746;2022-09-12T09:04:46;24.60;53.10
28548;DHT22;15750;49.600;8.746;2022-09-12T09:08:13;24.60;53.00
28548;DHT22;15750;49.600;8.746;2022-09-12T09:11:26;24.60;53.00
28548;DHT22;15750;49.600;8.746;2022-09-12T09:14:31;24.60;52.90
28548;DHT22;15750;49.600;8.746;2022-09-12T09:17:39;24.70;53.60
28548;DHT22;15750;49.600;8.746;2022-09-12T09:20:31;24.70;53.60
28548;DHT22;15750;49.600;8.746;2022-09-12T09:23:24;24.70;53.60
28548;DHT22;15750;49.600;8.746;2022-09-12T09:26:18;24.80;53.70
28548;DHT22;15750;49.600;8.746;2022-09-12T09:29:16;24.80;53.80
28548;DHT22;15750;49.600;8.746;2022-09-12T09:32:13;24.90;53.60
28548;DHT22;15750;49.600;8.746;2022-09-12T09:35:13;24.90;53.40
28548;DHT22;15750;49.600;8.746;2022-09-12T09:38:17;25.00;53.40
28548;DHT22;15750;49.600;8.746;2022-09-12T09:41:20;25.00;53.20
28548;DHT22;15750;49.600;8.746;2022-09-12T09:44:12;25.10;53.10
28548;DHT22;15750;49.600;8.746;2022-09-12T09:47:00;25.10;53.00
28548;DHT22;15750;49.600;8.746;2022-09-12T09:49:47;25.10;53.00
28548;DHT22;15750;49.600;8.746;2022-09-12T09:52:35;25.10;53.10
28548;DHT22;15750;49.600;8.746;2022-09-12T09:55:29;25.20;53.30
28548;DHT22;15750;49.600;8.746;2022-09-12T09:58:33;25.20;53.30
28548;DHT22;15750;49.600;8.746;2022-09-12T10:01:21;25.30;53.20
28548;DHT22;15750;49.600;8.746;2022-09-12T10:04:17;25.30;52.90
28548;DHT22;15750;49.600;8.746;2022-09-12T10:07:05;25.40;52.70
28548;DHT22;15750;49.600;8.746;2022-09-12T10:10:05;25.40;52.90
28548;DHT22;15750;49.600;8.746;2022-09-12T10:13:12;25.50;53.10
28548;DHT22;15750;49.600;8.746;2022-09-12T10:16:19;25.50;53.40
28548;DHT22;15750;49.600;8.746;2022-09-12T10:19:20;25.60;53.10
28548;DHT22;15750;49.600;8.746;2022-09-12T10:22:16;25.70;53.20
28548;DHT22;15750;49.600;8.746;2022-09-12T10:25:10;25.80;53.10
28548;DHT22;15750;49.600;8.746;2022-09-12T10:28:01;25.90;53.00
28548;DHT22;15750;49.600;8.746;2022-09-12T10:30:52;26.00;52.90
28548;DHT22;15750;49.600;8.746;2022-09-12T10:33:42;26.10;52.60
28548;DHT22;15750;49.600;8.746;2022-09-12T10:36:36;26.10;52.40
28548;DHT22;15750;49.600;8.746;2022-09-12T10:39:24;26.20;52.20
28548;DHT22;15750;49.600;8.746;2022-09-12T10:42:13;26.30;52.20
28548;DHT22;15750;49.600;8.746;2022-09-12T10:45:17;26.30;52.00
28548;DHT22;15750;49.600;8.746;2022-09-12T10:48:26;26.30;51.50
28548;DHT22;15750;49.600;8.746;2022-09-12T10:51:26;26.40;51.40
28548;DHT22;15750;49.600;8.746;2022-09-12T10:54:16;26.40;51.20
28548;DHT22;15750;49.600;8.746;2022-09-12T10:57:21;26.40;51.30
28548;DHT22;15750;49.600;8.746;2022-09-12T11:00:38;26.40;50.90
28548;DHT22;15750;49.600;8.746;2022-09-12T11:03:39;26.40;50.40
28548;DHT22;15750;49.600;8.746;2022-09-12T11:06:40;26.40;50.30
28548;DHT22;15750;49.600;8.746;2022-09-12T11:09:34;26.40;50.20
28548;DHT22;15750;49.600;8.746;2022-09-12T11:12:30;26.40;49.80
28548;DHT22;15750;49.600;8.746;2022-09-12T11:15:39;26.40;49.70
28548;DHT22;15750;49.600;8.746;2022-09-12T11:18:55;26.40;49.80
28548;DHT22;15750;49.600;8.746;2022-09-12T11:22:15;26.40;49.90
28548;DHT22;15750;49.600;8.746;2022-09-12T11:25:28;26.50;49.90
28548;DHT22;15750;49.600;8.746;2022-09-12T11:28:34;26.50;50.40
28548;DHT22;15750;49.600;8.746;2022-09-12T11:31:51;26.50;50.30
28548;DHT22;15750;49.600;8.746;2022-09-12T11:34:57;26.60;50.50
28548;DHT22;15750;49.600;8.746;2022-09-12T11:37:58;26.70;50.60
28548;DHT22;15750;49.600;8.746;2022-09-12T11:41:05;26.80;50.30
28548;DHT22;15750;49.600;8.746;2022-09-12T11:43:59;26.80;50.00
28548;DHT22;15750;49.600;8.746;2022-09-12T11:46:49;26.80;49.80
28548;DHT22;15750;49.600;8.746;2022-09-12T11:49:38;26.80;49.90
28548;DHT22;15750;49.600;8.746;2022-09-12T11:52:34;26.80;49.50
28548;DHT22;15750;49.600;8.746;2022-09-12T11:55:26;26.80;49.50
28548;DHT22;15750;49.600;8.746;2022-09-12T11:58:16;26.80;49.70
28548;DHT22;15750;49.600;8.746;2022-09-12T12:01:11;26.80;49.50
28548;DHT22;15750;49.600;8.746;2022-09-12T12:04:11;26.70;49.30
28548;DHT22;15750;49.600;8.746;2022-09-12T12:07:03;26.70;49.00
28548;DHT22;15750;49.600;8.746;2022-09-12T12:09:53;26.60;49.20
28548;DHT22;15750;49.600;8.746;2022-09-12T12:12:41;26.60;49.30
28548;DHT22;15750;49.600;8.746;2022-09-12T12:15:29;26.60;49.30
28548;DHT22;15750;49.600;8.746;2022-09-12T12:18:19;26.50;49.20
28548;DHT22;15750;49.600;8.746;2022-09-12T12:21:20;26.50;49.00
28548;DHT22;15750;49.600;8.746;2022-09-12T12:24:19;26.50;48.80
28548;DHT22;15750;49.600;8.746;2022-09-12T12:27:23;26.40;49.20
28548;DHT22;15750;49.600;8.746;2022-09-12T12:34:00;26.30;49.30
28548;DHT22;15750;49.600;8.746;2022-09-12T12:40:37;26.30;49.20
28548;DHT22;15750;49.600;8.746;2022-09-12T12:43:29;26.30;48.90
28548;DHT22;15750;49.600;8.746;2022-09-12T12:46:18;26.30;48.30
28548;DHT22;15750;49.600;8.746;2022-09-12T12:49:09;26.20;48.80
28548;DHT22;15750;49.600;8.746;2022-09-12T12:51:58;26.20;48.50
28548;DHT22;15750;49.600;8.746;2022-09-12T12:54:54;26.20;48.40
28548;DHT22;15750;49.600;8.746;2022-09-12T12:57:48;26.20;48.10
28548;DHT22;15750;49.600;8.746;2022-09-12T13:00:38;26.20;48.10
28548;DHT22;15750;49.600;8.746;2022-09-12T13:03:29;26.20;48.10
28548;DHT22;15750;49.600;8.746;2022-09-12T13:06:27;26.20;48.10
28548;DHT22;15750;49.600;8.746;2022-09-12T13:09:22;26.20;47.80
28548;DHT22;15750;49.600;8.746;2022-09-12T13:12:18;26.20;47.70
28548;DHT22;15750;49.600;8.746;2022-09-12T13:15:28;26.20;47.60
28548;DHT22;15750;49.600;8.746;2022-09-12T13:18:40;26.20;47.70
28548;DHT22;15750;49.600;8.746;2022-09-12T13:21:29;26.20;47.60
28548;DHT22;15750;49.600;8.746;2022-09-12T13:24:16;26.20;47.90
28548;DHT22;15750;49.600;8.746;2022-09-12T13:27:16;26.20;47.70
28548;DHT22;15750;49.600;8.746;2022-09-12T13:30:10;26.30;47.60
28548;DHT22;15750;49.600;8.746;2022-09-12T13:33:09;26.30;47.60
28548;DHT22;15750;49.600;8.746;2022-09-12T13:39:49;26.30;47.60
28548;DHT22;15750;49.600;8.746;2022-09-12T13:42:46;26.30;47.60
28548;DHT22;15750;49.600;8.746;2022-09-12T13:45:36;26.30;47.30
28548;DHT22;15750;49.600;8.746;2022-09-12T13:48:24;26.30;47.40
28548;DHT22;15750;49.600;8.746;2022-09-12T13:51:21;26.30;47.40
28548;DHT22;15750;49.600;8.746;2022-09-12T13:54:16;26.30;47.30
28548;DHT22;15750;49.600;8.746;2022-09-12T13:57:27;26.30;47.00
28548;DHT22;15750;49.600;8.746;2022-09-12T14:00:18;26.30;46.80
28548;DHT22;15750;49.600;8.746;2022-09-12T14:03:24;26.30;47.00
28548;DHT22;15750;49.600;8.746;2022-09-12T14:06:27;26.30;46.80
28548;DHT22;15750;49.600;8.746;2022-09-12T14:09:22;26.30;47.30
28548;DHT22;15750;49.600;8.746;2022-09-12T14:12:14;26.30;46.60
28548;DHT22;15750;49.600;8.746;2022-09-12T14:15:13;26.30;46.60
28548;DHT22;15750;49.600;8.746;2022-09-12T14:18:03;26.30;46.60
28548;DHT22;15750;49.600;8.746;2022-09-12T14:20:54;26.30;46.50
28548;DHT22;15750;49.600;8.746;2022-09-12T14:23:44;26.30;46.50
28548;DHT22;15750;49.600;8.746;2022-09-12T14:26:35;26.30;46.50
28548;DHT22;15750;49.600;8.746;2022-09-12T14:29:25;26.30;46.30
28548;DHT22;15750;49.600;8.746;2022-09-12T14:32:21;26.30;46.30
28548;DHT22;15750;49.600;8.746;2022-09-12T14:35:19;26.30;45.90
28548;DHT22;15750;49.600;8.746;2022-09-12T14:38:21;26.30;46.10
28548;DHT22;15750;49.600;8.746;2022-09-12T14:41:12;26.30;46.20
28548;DHT22;15750;49.600;8.746;2022-09-12T14:44:15;26.30;46.50
28548;DHT22;15750;49.600;8.746;2022-09-12T14:47:14;26.30;46.30
28548;DHT22;15750;49.600;8.746;2022-09-12T14:50:15;26.30;46.10
28548;DHT22;15750;49.600;8.746;2022-09-12T14:53:04;26.30;45.80
28548;DHT22;15750;49.600;8.746;2022-09-12T14:55:57;26.30;46.10
28548;DHT22;15750;49.600;8.746;2022-09-12T14:58:48;26.30;46.00
28548;DHT22;15750;49.600;8.746;2022-09-12T15:01:37;26.20;46.10
28548;DHT22;15750;49.600;8.746;2022-09-12T15:04:38;26.20;45.90
28548;DHT22;15750;49.600;8.746;2022-09-12T15:07:31;26.20;45.90
28548;DHT22;15750;49.600;8.746;2022-09-12T15:10:22;26.20;46.20
28548;DHT22;15750;49.600;8.746;2022-09-12T15:13:14;26.20;46.20
28548;DHT22;15750;49.600;8.746;2022-09-12T15:16:06;26.20;46.30
28548;DHT22;15750;49.600;8.746;2022-09-12T15:18:56;26.20;46.40
28548;DHT22;15750;49.600;8.746;2022-09-12T15:21:44;26.20;46.30
28548;DHT22;15750;49.600;8.746;2022-09-12T15:24:31;26.20;46.30
28548;DHT22;15750;49.600;8.746;2022-09-12T15:27:18;26.10;46.10
28548;DHT22;15750;49.600;8.746;2022-09-12T15:30:06;26.10;46.10
28548;DHT22;15750;49.600;8.746;2022-09-12T15:32:54;26.10;46.10
28548;DHT22;15750;49.600;8.746;2022-09-12T15:35:46;26.10;45.90
28548;DHT22;15750;49.600;8.746;2022-09-12T15:38:33;26.10;45.70
28548;DHT22;15750;49.600;8.746;2022-09-12T15:41:22;26.10;45.60
28548;DHT22;15750;49.600;8.746;2022-09-12T15:44:11;26.10;45.50
28548;DHT22;15750;49.600;8.746;2022-09-12T15:46:59;26.10;45.60
28548;DHT22;15750;49.600;8.746;2022-09-12T15:49:46;26.10;45.20
28548;DHT22;15750;49.600;8.746;2022-09-12T15:52:35;26.00;45.20
28548;DHT22;15750;49.600;8.746;2022-09-12T15:55:25;26.10;45.30
28548;DHT22;15750;49.600;8.746;2022-09-12T15:58:14;26.10;45.40
28548;DHT22;15750;49.600;8.746;2022-09-12T16:01:02;26.10;45.50
28548;DHT22;15750;49.600;8.746;2022-09-12T16:03:49;26.00;45.30
28548;DHT22;15750;49.600;8.746;2022-09-12T16:06:39;26.00;45.20
28548;DHT22;15750;49.600;8.746;2022-09-12T16:09:28;26.00;45.20
28548;DHT22;15750;49.600;8.746;2022-09-12T16:12:15;26.00;45.30
28548;DHT22;15750;49.600;8.746;2022-09-12T16:15:03;26.00;45.20
28548;DHT22;15750;49.600;8.746;2022-09-12T16:17:51;26.00;45.20
28548;DHT22;15750;49.600;8.746;2022-09-12T16:20:39;26.00;45.20
28548;DHT22;15750;49.600;8.746;2022-09-12T16:23:26;26.00;44.90
28548;DHT22;15750;49.600;8.746;2022-09-12T16:26:16;26.00;44.70
28548;DHT22;15750;49.600;8.746;2022-09-12T16:29:03;26.00;44.60
28548;DHT22;15750;49.600;8.746;2022-09-12T16:31:50;26.00;44.90
28548;DHT22;15750;49.600;8.746;2022-09-12T16:34:38;26.00;44.80
28548;DHT22;15750;49.600;8.746;2022-09-12T16:37:25;26.00;44.60
28548;DHT22;15750;49.600;8.746;2022-09-12T16:40:12;26.00;44.90
28548;DHT22;15750;49.600;8.746;2022-09-12T16:43:03;26.00;45.20
28548;DHT22;15750;49.600;8.746;2022-09-12T16:45:59;26.00;45.10
28548;DHT22;15750;49.600;8.746;2022-09-12T16:48:49;26.00;44.90
28548;DHT22;15750;49.600;8.746;2022-09-12T16:51:37;26.00;45.20
28548;DHT22;15750;49.600;8.746;2022-09-12T16:54:28;26.00;46.00
28548;DHT22;15750;49.600;8.746;2022-09-12T16:57:15;26.00;45.40
28548;DHT22;15750;49.600;8.746;2022-09-12T17:00:06;25.90;45.40
28548;DHT22;15750;49.600;8.746;2022-09-12T17:02:54;25.90;45.80
28548;DHT22;15750;49.600;8.746;2022-09-12T17:05:41;25.90;45.80
28548;DHT22;15750;49.600;8.746;2022-09-12T17:08:29;25.90;45.60
28548;DHT22;15750;49.600;8.746;2022-09-12T17:11:18;25.90;45.80
28548;DHT22;15750;49.600;8.746;2022-09-12T17:14:07;25.90;45.90
28548;DHT22;15750;49.600;8.746;2022-09-12T17:16:56;25.90;46.00
28548;DHT22;15750;49.600;8.746;2022-09-12T17:19:43;25.90;45.90
28548;DHT22;15750;49.600;8.746;2022-09-12T17:22:30;25.90;46.20
28548;DHT22;15750;49.600;8.746;2022-09-12T17:25:18;25.80;46.00
28548;DHT22;15750;49.600;8.746;2022-09-12T17:28:06;25.80;46.10
28548;DHT22;15750;49.600;8.746;2022-09-12T17:30:54;25.80;46.10
28548;DHT22;15750;49.600;8.746;2022-09-12T17:33:44;25.80;46.30
28548;DHT22;15750;49.600;8.746;2022-09-12T17:36:32;25.80;46.20
28548;DHT22;15750;49.600;8.746;2022-09-12T17:39:19;25.80;46.00
28548;DHT22;15750;49.600;8.746;2022-09-12T17:42:06;25.80;46.00
28548;DHT22;15750;49.600;8.746;2022-09-12T17:44:54;25.80;46.00
28548;DHT22;15750;49.600;8.746;2022-09-12T17:47:43;25.80;46.00
28548;DHT22;15750;49.600;8.746;2022-09-12T17:50:33;25.70;46.10
28548;DHT22;15750;49.600;8.746;2022-09-12T17:53:24;25.70;46.20
28548;DHT22;15750;49.600;8.746;2022-09-12T17:56:11;25.70;46.40
28548;DHT22;15750;49.600;8.746;2022-09-12T17:58:59;25.70;46.50
28548;DHT22;15750;49.600;8.746;2022-09-12T18:01:46;25.70;46.40
28548;DHT22;15750;49.600;8.746;2022-09-12T18:04:51;25.70;46.40
28548;DHT22;15750;49.600;8.746;2022-09-12T18:07:40;25.60;46.50
28548;DHT22;15750;49.600;8.746;2022-09-12T18:10:29;25.60;46.50
28548;DHT22;15750;49.600;8.746;2022-09-12T18:13:16;25.60;46.50
28548;DHT22;15750;49.600;8.746;2022-09-12T18:16:04;25.60;46.50
28548;DHT22;15750;49.600;8.746;2022-09-12T18:18:53;25.50;46.40
28548;DHT22;15750;49.600;8.746;2022-09-12T18:21:41;25.50;46.30
28548;DHT22;15750;49.600;8.746;2022-09-12T18:24:29;25.50;46.50
28548;DHT22;15750;49.600;8.746;2022-09-12T18:27:17;25.50;46.50